Portada
METAR-TAF:

METAR-TAF

Aeroports :

Zhengzhou, Xina

latitud: 34-43N, longitud: 113-39E, altitud: 111 m

Observació

L'informe es va fer fa 1 hora i 0 minuts, a les 14:00 UTC
Vent 2 kt amb direcció variable
Temperatura 14°C
Humitat 47%
Pressió 1022 hPa
Visibilitat 10 km o més
sense núvols per sota de 1500 mi sense presència de cumulonimbus.

METAR: ZHCC 241400Z VRB01MPS CAVOK 14/03 Q1022 NOSIG

Hora: 23:00 (15:00 UTC)

Pronòstic

L'informe es va fer fa 5 hores i 54 minuts, a les 09:06 UTC
Pronòstic vàlid del 24 a les 12 UTC al 25 a les 12 UTC
Vent 6 kt del Sud
Visibilitat: 5000 m
calitja

TAF: ZHCC 240906Z 2412/2512 18003MPS 5000 HZ NSC TX20/2507Z TN09/2422Z

Observacions i pronòstics meteorològics de més de 4000 aeroports (METAR i TAF).

Les estacions disponibles són els punts grocs i vermells al mapa.

Posi el ratolí al punt desitjat per veure el nom de l'estació.

Feu clic per veure les observacions i els pronòstics meteorològics.

Per canviar el mapa: feu clic els botons verds amb una creu de color negre per apropar; al botó verd amb un guió per allunyar la imatge; o en les fletxes verdes per a mapes adjacents.


METAR-TAF: